Nearby METAR Reports

 

KSFO - San Francisco, California, USA
Distance from station: NNW 8km
Updated: Thu, 18-Apr-2019 6:56am PDT
Few Clouds
Few Clouds
 Wind from calm
Wind: Calm
Temperature: 54°F , 12°C
Dew Point: 45°F , 7°C
Humidity: 72%
Barometer: 30.14 inHg , 1020.7 hPa
Clouds: Few Clouds
Visibility: 10 miles , 16 km
Cloud details: Few Clouds 20000 ft
2019/04/18 13:56 KSFO 181356Z 00000KT 10SM FEW200 12/07 A3014 RMK AO2 SLP206 T01170072
KSQL - San Carlos Airpo, California, USA
Distance from station: ESE 8km
Updated: Thu, 18-Apr-2019 6:55am PDT
Clear
Clear
 Wind from calm
Wind: Calm
Temperature: 52°F , 11°C
Dew Point: 48°F , 9°C
Humidity: 88%
Barometer: 30.15 inHg , 1021 hPa
Clouds: Clear
Visibility: 8 miles , 13 km
2019/04/18 13:55 KSQL 181355Z AUTO 00000KT 8SM CLR 11/09 A3015 RMK AO2
 
KHAF - Half Moon Bay, California, USA
Distance from station: WSW 15km
Updated: Thu, 18-Apr-2019 7:20am PDT
Mist, Overcast
Mist, Overcast
 Wind from calm
Wind: Calm
Temperature: 46°F , 8°C
Dew Point: 46°F , 8°C
Humidity: 100%
Barometer: 30.16 inHg , 1021.3 hPa
Summary: Mist
Clouds: Overcast
Visibility: 1 1/4 miles , 2 km
Cloud details: Overcast 200 ft
2019/04/18 14:20 KHAF 181420Z AUTO 00000KT 1 1/4SM BR OVC002 08/08 A3016 RMK AO2
KOAK - Oakland, California, USA
Distance from station: NNE 21km
Updated: Thu, 18-Apr-2019 6:53am PDT
Few Clouds
Few Clouds
 Wind from calm
Wind: Calm
Temperature: 52°F , 11°C
Dew Point: 46°F , 8°C
Humidity: 82%
Barometer: 30.15 inHg , 1021 hPa
Clouds: Few Clouds
Visibility: 10 miles , 16 km
Cloud details: Few Clouds 20000 ft
2019/04/18 13:53 KOAK 181353Z 00000KT 10SM FEW200 11/08 A3015 RMK AO2 SLP209 T01110083
 
KPAO - Palo Alto, California, USA
Distance from station: ESE 21km
Updated: Thu, 18-Apr-2019 6:47am PDT
Clear
Clear
 Wind from calm
Wind: Calm
Temperature: 50°F , 10°C
Dew Point: 46°F , 8°C
Humidity: 88%
Barometer: 30.15 inHg , 1021 hPa
Clouds: Clear
Visibility: 10 miles , 16 km
2019/04/18 13:47 KPAO 181347Z 00000KT 10SM SKC 10/08 A3015
KHWD - Hayward, California, USA
Distance from station: NE 23km
Updated: Thu, 18-Apr-2019 6:54am PDT
Clear
Clear
 Wind from ENE
Wind: ENE 3 mph , 6 km/h
Temperature: 52°F , 11°C
Dew Point: 45°F , 7°C
Humidity: 77%
Barometer: 30.15 inHg , 1021 hPa
Clouds: Clear
Visibility: 10 miles , 16 km
2019/04/18 13:54 KHWD 181354Z 07003KT 10SM CLR 11/07 A3015 RMK AO2 SLP218 T01060072
 
KNUQ - Moffett Nas/Mtn, California, USA
Distance from station: ESE 30km
Updated: Thu, 18-Apr-2019 6:56am PDT
Clear
Clear
 Wind from calm
Wind: Calm
Temperature: 52°F , 11°C
Dew Point: 46°F , 8°C
Humidity: 82%
Barometer: 30.15 inHg , 1021 hPa
Clouds: Clear
Visibility: 10 miles , 16 km
2019/04/18 13:56 KNUQ 181356Z 00000KT 10SM CLR 11/08 A3015 RMK AO2 SLP213 T01110083 $
KSJC - San Jose, California, USA
Distance from station: ESE 42km
Updated: Thu, 18-Apr-2019 6:53am PDT
Few Clouds
Few Clouds
 Wind from calm
Wind: Calm
Temperature: 54°F , 12°C
Dew Point: 46°F , 8°C
Humidity: 77%
Barometer: 30.15 inHg , 1021 hPa
Clouds: Few Clouds
Visibility: 10 miles , 16 km
Cloud details: Few Clouds 5000 ft
Few Clouds 15000 ft
2019/04/18 13:53 KSJC 181353Z 00000KT 10SM FEW050 FEW150 12/08 A3015 RMK AO2 SLP208 T01170083
 
KLVK - Livermore, California, USA
Distance from station: ENE 49km
Updated: Thu, 18-Apr-2019 6:53am PDT
Clear
Clear
 Wind from calm
Wind: Calm
Temperature: 48°F , 9°C
Dew Point: 45°F , 7°C
Humidity: 87%
Barometer: 30.14 inHg , 1020.7 hPa
Clouds: Clear
Visibility: 10 miles , 16 km
2019/04/18 13:53 KLVK 181353Z AUTO 00000KT 10SM CLR 09/07 A3014 RMK AO2 SLP205 T00940067
KRHV - San Jose/Reid, California, USA
Distance from station: ESE 53km
Updated: Wed, 17-Apr-2019 9:47pm PDT
NOT Current
Clear
Clear
 Wind from NW
Wind: NW 5 mph , 7 km/h
Barometer: 30.17 inHg , 1021.7 hPa
Clouds: Clear
Visibility: 10 miles , 16 km
2019/04/18 04:47 KRHV 180447Z 31004KT 10SM SKC A3017 RMK TEMP/DP MISSING ETS WIND LAST
 
KCCR - Concord, California, USA
Distance from station: NNE 56km
Updated: Thu, 18-Apr-2019 6:53am PDT
Clear
Clear
 Wind from calm
Wind: Calm
Temperature: 52°F , 11°C
Dew Point: 45°F , 7°C
Humidity: 77%
Barometer: 30.15 inHg , 1021 hPa
Clouds: Clear
Visibility: 10 miles , 16 km
2019/04/18 13:53 KCCR 181353Z AUTO 00000KT 10SM CLR 11/07 A3015 RMK AO2 SLP195 T01060072
KDVO - Novato/Gnoss Fld, California, USA
Distance from station: NNW 70km
Updated: Thu, 18-Apr-2019 7:15am PDT
Clear
Clear
 Wind from calm
Wind: Calm
Temperature: 48°F , 9°C
Dew Point: 48°F , 9°C
Humidity: 100%
Barometer: 30.16 inHg , 1021.3 hPa
Clouds: Clear
Visibility: 10 miles , 16 km
2019/04/18 14:15 KDVO 181415Z AUTO 00000KT 10SM CLR 09/09 A3016 RMK AO2
 
KAPC - Napa, California, USA
Distance from station: N 73km
Updated: Thu, 18-Apr-2019 6:54am PDT
Clear
Clear
 Wind from NNE
Wind: NNE 3 mph , 6 km/h
Temperature: 48°F , 9°C
Dew Point: 46°F , 8°C
Humidity: 94%
Barometer: 30.15 inHg , 1021 hPa
Clouds: Clear
Visibility: 10 miles , 16 km
2019/04/18 13:54 KAPC 181354Z 02003KT 10SM CLR 09/08 A3015 RMK AO2 SLP200 T00940078